Time;durP1;ratioP1;P1;durP2;ratioP2;P2;SDS_P1;SDS_P2;PMS_P1;PMS_P2;Temp;Humidity;BMP_temperature;BMP_pressure;BME280_temperature;BME280_humidity;BME280_pressure;Samples;Min_cycle;Max_cycle;Signal;HPM_P1;HPM_P2
2022/03/29 00:00:10;;;;;;;35.92;4.78;;;2.90;77.70;;;;;;4177357;28;20029;-80
2022/03/29 00:02:11;;;;;;;31.83;4.57;;;2.90;77.70;;;;;;4177512;28;20428;-80
2022/03/29 00:04:12;;;;;;;45.55;5.28;;;2.90;77.70;;;;;;4160177;28;20040;-80
2022/03/29 00:06:12;;;;;;;42.28;4.43;;;2.90;77.70;;;;;;4181989;28;20067;-80
2022/03/29 00:08:13;;;;;;;49.92;4.93;;;2.90;77.70;;;;;;4161345;28;20032;-80
2022/03/29 00:10:14;;;;;;;30.08;4.68;;;2.90;77.60;;;;;;4176391;28;20033;-80
2022/03/29 00:12:14;;;;;;;35.83;4.10;;;2.80;77.70;;;;;;4175864;28;20503;-81
2022/03/29 00:14:15;;;;;;;48.10;4.85;;;2.80;77.80;;;;;;4160084;28;20033;-80
2022/03/29 00:16:16;;;;;;;53.38;5.70;;;2.70;77.90;;;;;;4161227;28;20025;-81
2022/03/29 00:18:16;;;;;;;32.08;4.20;;;2.70;77.90;;;;;;4127133;28;20082;-82
2022/03/29 00:20:17;;;;;;;37.75;4.30;;;2.70;77.90;;;;;;4175473;28;20036;-83
2022/03/29 00:22:18;;;;;;;47.00;3.95;;;2.70;77.90;;;;;;4161566;28;20052;-81
2022/03/29 00:24:19;;;;;;;39.15;4.22;;;2.70;77.80;;;;;;4146318;28;20050;-80
2022/03/29 00:26:19;;;;;;;35.53;4.22;;;2.70;77.90;;;;;;4176114;28;20033;-81
2022/03/29 00:28:20;;;;;;;37.60;4.88;;;2.70;77.70;;;;;;4157372;28;20061;-80
2022/03/29 00:30:20;;;;;;;45.03;4.75;;;2.70;77.50;;;;;;4159514;28;20032;-81
2022/03/29 00:32:21;;;;;;;42.28;4.88;;;2.60;77.30;;;;;;4174225;28;20051;-81
2022/03/29 00:34:22;;;;;;;41.38;4.63;;;2.70;77.30;;;;;;4175350;28;20057;-81
2022/03/29 00:36:23;;;;;;;42.35;4.68;;;2.60;77.80;;;;;;4162944;28;20026;-81
2022/03/29 00:38:23;;;;;;;36.40;4.47;;;2.60;76.90;;;;;;4176414;28;20764;-80
2022/03/29 00:40:24;;;;;;;32.67;4.45;;;2.60;77.10;;;;;;4142704;28;20089;-81
2022/03/29 00:42:24;;;;;;;28.90;4.10;;;2.60;77.00;;;;;;4156157;28;20535;-80
2022/03/29 00:44:29;;;;;;;28.95;3.97;;;2.60;77.10;;;;;;4162656;28;20504;-82
2022/03/29 00:46:30;;;;;;;27.70;4.63;;;2.50;77.00;;;;;;4158293;28;20029;-82
2022/03/29 00:48:31;;;;;;;31.85;4.00;;;2.50;77.10;;;;;;4139931;28;20064;-81
2022/03/29 00:50:31;;;;;;;43.80;4.70;;;2.50;77.60;;;;;;4190988;28;20036;-82
2022/03/29 00:52:32;;;;;;;34.78;4.00;;;2.50;77.30;;;;;;4157240;28;21946;-81
2022/03/29 00:54:34;;;;;;;35.60;3.90;;;2.50;77.30;;;;;;4177081;28;20502;-82
2022/03/29 00:56:35;;;;;;;30.52;4.68;;;2.50;77.30;;;;;;4179589;28;20064;-81
2022/03/29 00:58:36;;;;;;;37.42;4.40;;;2.40;77.40;;;;;;4138432;28;20022;-82
2022/03/29 01:00:36;;;;;;;31.63;3.85;;;2.40;77.40;;;;;;4159707;28;20070;-81
2022/03/29 01:02:37;;;;;;;41.30;4.97;;;2.40;77.50;;;;;;4171664;28;20500;-81
2022/03/29 01:04:38;;;;;;;32.88;3.83;;;2.40;77.50;;;;;;4159566;28;20509;-81
2022/03/29 01:06:39;;;;;;;33.25;4.18;;;2.30;77.50;;;;;;4143404;28;20539;-80
2022/03/29 01:08:39;;;;;;;37.95;3.42;;;2.30;77.50;;;;;;4172185;28;20028;-80
2022/03/29 01:10:41;;;;;;;41.55;3.67;;;2.30;77.60;;;;;;4173921;28;20040;-81
2022/03/29 01:12:41;;;;;;;38.25;4.25;;;2.30;77.70;;;;;;4173716;28;20112;-80
2022/03/29 01:14:42;;;;;;;31.23;4.18;;;2.30;77.80;;;;;;4159448;28;20037;-81
2022/03/29 01:19:05;;;;;;;34.45;4.60;;;2.30;77.90;;;;;;4174454;28;20029;-81
2022/03/29 01:21:06;;;;;;;28.65;3.28;;;2.30;77.80;;;;;;4162244;28;20108;-81
2022/03/29 01:23:06;;;;;;;29.73;3.78;;;2.20;77.80;;;;;;4156270;28;20014;-81
2022/03/29 01:25:08;;;;;;;25.75;3.30;;;2.30;77.90;;;;;;4178938;28;20029;-81
2022/03/29 01:27:09;;;;;;;38.85;4.45;;;2.30;78.00;;;;;;4157778;28;20032;-81
2022/03/29 01:29:10;;;;;;;33.05;3.67;;;2.30;78.10;;;;;;4176855;28;20029;-81
2022/03/29 01:31:11;;;;;;;29.63;3.80;;;2.30;78.10;;;;;;4140385;28;20104;-80
2022/03/29 01:33:12;;;;;;;23.95;3.33;;;2.30;78.90;;;;;;4156987;28;21249;-81
2022/03/29 01:35:13;;;;;;;31.80;3.58;;;2.30;78.10;;;;;;4143992;28;20053;-81
2022/03/29 01:37:13;;;;;;;26.98;3.95;;;2.30;78.10;;;;;;4134196;28;20092;-80
2022/03/29 01:39:14;;;;;;;43.72;3.67;;;2.30;78.10;;;;;;4160894;28;20025;-81
2022/03/29 01:41:15;;;;;;;37.17;3.58;;;2.30;78.20;;;;;;4174748;28;20029;-81
2022/03/29 01:43:15;;;;;;;39.20;4.15;;;2.20;78.20;;;;;;4158313;28;20117;-80
2022/03/29 01:45:16;;;;;;;26.92;3.25;;;2.20;78.30;;;;;;4157531;28;20029;-80
2022/03/29 01:47:21;;;;;;;26.92;2.95;;;2.20;78.30;;;;;;4155040;28;20049;-81
2022/03/29 01:49:22;;;;;;;31.50;4.32;;;2.20;78.30;;;;;;4176409;28;20037;-81
2022/03/29 01:51:23;;;;;;;36.13;3.35;;;2.20;78.30;;;;;;4143974;28;20037;-80
2022/03/29 01:53:24;;;;;;;26.83;2.90;;;2.20;78.30;;;;;;4153685;28;20033;-81
2022/03/29 01:55:25;;;;;;;27.33;3.03;;;2.20;78.30;;;;;;4147784;28;20528;-80
2022/03/29 01:57:27;;;;;;;36.58;4.00;;;2.20;78.10;;;;;;4156431;28;20037;-80
2022/03/29 02:00:30;;;;;;;28.38;3.85;;;2.20;77.90;;;;;;4159030;28;20030;-80
2022/03/29 02:01:48;;;;;;;29.35;3.28;;;2.20;78.00;;;;;;4160866;28;20148;-80
2022/03/29 02:03:49;;;;;;;24.90;3.10;;;2.20;78.00;;;;;;4158531;28;20389;-80
2022/03/29 02:05:49;;;;;;;26.45;3.35;;;2.20;78.10;;;;;;4128253;28;20038;-81
2022/03/29 02:07:50;;;;;;;27.00;2.53;;;2.20;78.40;;;;;;4176360;28;20090;-80
2022/03/29 02:09:51;;;;;;;33.42;3.13;;;2.20;78.10;;;;;;4175180;28;20124;-80
2022/03/29 02:11:51;;;;;;;24.65;2.97;;;2.20;77.90;;;;;;4143582;28;20034;-80
2022/03/29 02:13:55;;;;;;;27.08;3.88;;;2.20;77.70;;;;;;4172602;28;20049;-80
2022/03/29 02:15:56;;;;;;;34.20;3.47;;;2.20;77.60;;;;;;4142674;28;20506;-80
2022/03/29 02:17:57;;;;;;;25.80;2.80;;;2.20;77.50;;;;;;4159741;28;20048;-80
2022/03/29 02:19:58;;;;;;;23.80;2.78;;;2.20;77.60;;;;;;4172410;28;20703;-80
2022/03/29 02:21:58;;;;;;;30.38;3.45;;;2.20;77.60;;;;;;4174682;28;20114;-81
2022/03/29 02:24:00;;;;;;;32.65;3.00;;;2.10;77.60;;;;;;4173601;28;20029;-81
2022/03/29 02:26:00;;;;;;;28.67;2.97;;;2.10;77.90;;;;;;4175708;28;20033;-80
2022/03/29 02:28:02;;;;;;;40.08;3.70;;;2.10;78.00;;;;;;4174111;28;20148;-80
2022/03/29 02:30:02;;;;;;;34.55;4.53;;;2.10;78.10;;;;;;4156164;28;20065;-81
2022/03/29 02:32:03;;;;;;;17.52;2.63;;;2.10;78.00;;;;;;4157041;28;20605;-81
2022/03/29 02:34:04;;;;;;;27.83;2.95;;;2.10;77.80;;;;;;4170772;28;20044;-81
2022/03/29 02:36:05;;;;;;;25.08;3.20;;;2.10;77.80;;;;;;4173307;28;20032;-81
2022/03/29 02:38:06;;;;;;;29.50;3.00;;;2.10;77.70;;;;;;4175628;28;20517;-81
2022/03/29 02:40:08;;;;;;;17.23;2.63;;;2.10;77.70;;;;;;4177175;28;20095;-81
2022/03/29 02:42:08;;;;;;;21.95;2.67;;;2.10;77.80;;;;;;4157296;28;20053;-81
2022/03/29 02:44:09;;;;;;;28.05;3.75;;;2.10;77.80;;;;;;4159757;28;20037;-81
2022/03/29 02:46:10;;;;;;;31.58;3.45;;;2.00;77.80;;;;;;4174828;28;20036;-81
2022/03/29 02:48:11;;;;;;;23.73;3.63;;;2.00;78.00;;;;;;4142442;28;20731;-80
2022/03/29 02:50:12;;;;;;;28.23;3.00;;;2.10;78.00;;;;;;4169088;28;20079;-80
2022/03/29 02:52:13;;;;;;;25.00;2.40;;;2.00;78.10;;;;;;4158431;28;20083;-80
2022/03/29 02:54:14;;;;;;;27.02;2.92;;;2.00;78.10;;;;;;4154883;28;20041;-80
2022/03/29 02:56:15;;;;;;;29.27;3.47;;;2.00;78.10;;;;;;4171286;28;20033;-80
2022/03/29 02:58:15;;;;;;;33.10;4.65;;;2.00;78.00;;;;;;4173754;28;20044;-80
2022/03/29 03:00:16;;;;;;;42.15;4.95;;;2.00;78.20;;;;;;4172809;28;20114;-82
2022/03/29 03:02:18;;;;;;;46.35;7.82;;;2.00;78.20;;;;;;4152025;28;20072;-81
2022/03/29 03:04:18;;;;;;;41.83;5.45;;;2.00;78.20;;;;;;4161061;28;20033;-81
2022/03/29 03:06:19;;;;;;;36.38;4.78;;;2.00;78.30;;;;;;4161731;28;20080;-81
2022/03/29 03:08:20;;;;;;;41.65;5.93;;;2.00;78.40;;;;;;4177925;28;20029;-81
2022/03/29 03:10:20;;;;;;;28.98;5.00;;;2.00;78.50;;;;;;4160097;28;20095;-81
2022/03/29 03:12:21;;;;;;;27.15;4.13;;;1.90;78.50;;;;;;4156531;28;20042;-80
2022/03/29 03:14:22;;;;;;;40.60;3.97;;;1.90;78.50;;;;;;4176417;28;20036;-80
2022/03/29 03:16:22;;;;;;;20.38;2.83;;;2.00;78.50;;;;;;4173958;28;20032;-80
2022/03/29 03:18:23;;;;;;;18.00;2.67;;;1.90;78.50;;;;;;4159860;28;20176;-80
2022/03/29 03:20:24;;;;;;;26.67;3.63;;;1.90;78.50;;;;;;4159123;28;20029;-80
2022/03/29 03:22:24;;;;;;;28.40;3.15;;;1.90;78.50;;;;;;4142097;28;20030;-80
2022/03/29 03:24:25;;;;;;;38.20;4.13;;;1.90;78.50;;;;;;4170090;28;20017;-81
2022/03/29 03:26:26;;;;;;;49.53;5.15;;;1.90;78.50;;;;;;4171634;28;20028;-81
2022/03/29 03:28:26;;;;;;;36.05;3.78;;;1.90;78.50;;;;;;4173347;28;20689;-80
2022/03/29 03:30:27;;;;;;;26.60;3.95;;;1.90;78.50;;;;;;4169438;28;20095;-81
2022/03/29 03:32:27;;;;;;;23.50;3.55;;;1.90;78.70;;;;;;4172980;28;20056;-81
2022/03/29 03:34:28;;;;;;;29.90;4.45;;;1.90;78.70;;;;;;4159319;28;20037;-81
2022/03/29 03:36:29;;;;;;;29.08;3.92;;;1.90;78.60;;;;;;4169661;28;20025;-80
2022/03/29 03:38:29;;;;;;;31.95;4.85;;;1.80;78.40;;;;;;4169575;28;20033;-80
2022/03/29 03:40:30;;;;;;;29.55;4.13;;;1.90;78.50;;;;;;4162789;28;20025;-80
2022/03/29 03:42:31;;;;;;;29.65;4.05;;;1.80;78.50;;;;;;4156008;28;20033;-80
2022/03/29 03:44:31;;;;;;;27.20;3.55;;;1.80;78.50;;;;;;4158609;28;20022;-80
2022/03/29 03:46:32;;;;;;;21.63;3.22;;;1.80;78.50;;;;;;4153494;28;20209;-79
2022/03/29 03:48:32;;;;;;;33.92;3.83;;;1.80;78.50;;;;;;4156312;28;20451;-80
2022/03/29 03:50:33;;;;;;;21.25;2.85;;;1.80;78.40;;;;;;4174406;28;20044;-82
2022/03/29 03:52:34;;;;;;;31.98;2.75;;;1.80;78.20;;;;;;4157237;28;20033;-80
2022/03/29 03:54:37;;;;;;;35.08;3.78;;;1.80;78.20;;;;;;4170241;28;20148;-79
2022/03/29 03:56:38;;;;;;;26.40;3.00;;;1.80;78.20;;;;;;4141053;28;20026;-81
2022/03/29 03:58:38;;;;;;;24.77;2.53;;;1.80;78.20;;;;;;4176305;28;20056;-80
2022/03/29 04:00:39;;;;;;;36.92;4.15;;;1.70;78.00;;;;;;4144554;28;20034;-80
2022/03/29 04:02:40;;;;;;;21.88;2.38;;;1.70;78.00;;;;;;4160066;28;20040;-80
2022/03/29 04:04:41;;;;;;;26.05;3.53;;;1.70;78.00;;;;;;4171774;28;20045;-81
2022/03/29 04:06:41;;;;;;;17.40;2.63;;;1.70;77.90;;;;;;4165984;28;20030;-80
2022/03/29 04:08:42;;;;;;;22.95;3.15;;;1.70;77.90;;;;;;4175846;28;20029;-80
2022/03/29 04:10:43;;;;;;;25.48;2.92;;;1.70;77.90;;;;;;4159788;28;20033;-80
2022/03/29 04:12:43;;;;;;;20.48;2.92;;;1.70;77.90;;;;;;4161164;28;20370;-80
2022/03/29 04:14:44;;;;;;;20.27;2.63;;;1.70;77.80;;;;;;4156144;28;20037;-80
2022/03/29 04:16:44;;;;;;;20.80;2.35;;;1.60;77.70;;;;;;4160630;28;20037;-79
2022/03/29 04:18:45;;;;;;;26.67;3.17;;;1.60;77.70;;;;;;4144834;28;20470;-80
2022/03/29 04:20:46;;;;;;;22.25;2.83;;;1.60;77.70;;;;;;4171827;28;20044;-80
2022/03/29 04:22:47;;;;;;;21.15;2.85;;;1.60;78.60;;;;;;4156711;28;20021;-79
2022/03/29 04:24:48;;;;;;;39.75;3.55;;;1.60;78.00;;;;;;4179825;28;20104;-80
2022/03/29 04:26:48;;;;;;;27.63;3.13;;;1.60;78.10;;;;;;4177846;28;20032;-79
2022/03/29 04:28:49;;;;;;;33.47;3.33;;;1.50;78.20;;;;;;4181180;28;20024;-79
2022/03/29 04:30:50;;;;;;;20.88;2.63;;;1.50;78.40;;;;;;4170606;28;20029;-78
2022/03/29 04:32:51;;;;;;;35.35;3.20;;;1.50;78.60;;;;;;4159551;28;20029;-79
2022/03/29 04:34:51;;;;;;;20.52;3.33;;;1.50;78.70;;;;;;4164747;28;20032;-78
2022/03/29 04:36:52;;;;;;;26.30;3.05;;;1.50;78.70;;;;;;4161401;28;20021;-80
2022/03/29 04:38:53;;;;;;;19.58;3.10;;;1.50;78.60;;;;;;4170899;28;20025;-79
2022/03/29 04:40:54;;;;;;;15.63;2.63;;;1.50;78.60;;;;;;4165716;28;20041;-78
2022/03/29 04:42:54;;;;;;;21.70;2.72;;;1.50;78.70;;;;;;4157378;28;20100;-79
2022/03/29 04:44:55;;;;;;;30.75;2.80;;;1.50;78.70;;;;;;4160996;28;20089;-79
2022/03/29 04:46:56;;;;;;;31.60;3.58;;;1.50;78.60;;;;;;4171634;28;20025;-79
2022/03/29 04:48:56;;;;;;;24.00;2.63;;;1.50;78.70;;;;;;4157960;28;20026;-78
2022/03/29 04:50:57;;;;;;;23.67;2.70;;;1.50;78.70;;;;;;4173673;28;20034;-79
2022/03/29 04:52:58;;;;;;;28.42;3.63;;;1.50;78.60;;;;;;4176744;28;20029;-80
2022/03/29 04:54:59;;;;;;;21.30;2.60;;;1.50;78.70;;;;;;4173577;28;20021;-78
2022/03/29 04:57:03;;;;;;;34.00;3.05;;;1.50;78.70;;;;;;4170431;28;20567;-79
2022/03/29 04:59:04;;;;;;;32.90;3.20;;;1.50;78.90;;;;;;4164622;28;20104;-78
2022/03/29 05:01:05;;;;;;;21.85;2.58;;;1.40;78.90;;;;;;4176654;28;20039;-78
2022/03/29 05:03:06;;;;;;;27.67;3.60;;;1.40;78.90;;;;;;4160624;28;20128;-79
2022/03/29 05:05:07;;;;;;;30.50;4.30;;;1.40;78.80;;;;;;4164717;28;20034;-82
2022/03/29 05:07:08;;;;;;;20.60;3.30;;;1.40;78.80;;;;;;4179071;28;20028;-82
2022/03/29 05:09:08;;;;;;;21.02;2.80;;;1.40;78.80;;;;;;4157384;28;20026;-81
2022/03/29 05:11:09;;;;;;;18.92;2.50;;;1.40;78.80;;;;;;4159793;28;20863;-81
2022/03/29 05:13:10;;;;;;;25.38;3.28;;;1.40;78.80;;;;;;4179004;28;20033;-82
2022/03/29 05:15:11;;;;;;;15.85;2.55;;;1.40;78.80;;;;;;4143085;28;20030;-81
2022/03/29 05:17:11;;;;;;;14.43;2.35;;;1.40;78.90;;;;;;4167005;28;20515;-81
2022/03/29 05:19:12;;;;;;;30.70;3.17;;;1.40;79.10;;;;;;4166495;28;20025;-81
2022/03/29 05:21:13;;;;;;;21.10;3.25;;;1.40;79.10;;;;;;4178877;28;20066;-81
2022/03/29 05:23:16;;;;;;;21.77;3.58;;;1.40;79.10;;;;;;4165552;28;20774;-81
2022/03/29 05:25:18;;;;;;;26.83;3.60;;;1.40;79.10;;;;;;4173959;28;20052;-80
2022/03/29 05:27:19;;;;;;;21.27;3.05;;;1.40;79.20;;;;;;4182771;28;20447;-81
2022/03/29 05:29:19;;;;;;;24.63;2.83;;;1.40;79.20;;;;;;4160896;28;20017;-81
2022/03/29 05:31:20;;;;;;;18.73;2.22;;;1.40;79.20;;;;;;4162220;28;20037;-81
2022/03/29 05:33:20;;;;;;;15.73;2.47;;;1.40;79.20;;;;;;4164769;28;20051;-81
2022/03/29 05:35:21;;;;;;;24.50;2.20;;;1.40;80.00;;;;;;4161685;28;20040;-81
2022/03/29 05:37:22;;;;;;;20.77;2.47;;;1.50;79.30;;;;;;4171841;28;20048;-81
2022/03/29 05:39:23;;;;;;;25.90;2.50;;;1.40;79.30;;;;;;4178030;28;20455;-81
2022/03/29 05:41:24;;;;;;;26.17;2.47;;;1.50;79.40;;;;;;4164546;28;20029;-81
2022/03/29 05:43:25;;;;;;;27.00;2.55;;;1.50;79.40;;;;;;4166425;28;20028;-80
2022/03/29 05:45:25;;;;;;;27.65;3.05;;;1.50;79.40;;;;;;4197777;28;20085;-81
2022/03/29 05:49:45;;;;;;;23.85;3.03;;;1.50;79.40;;;;;;4163598;28;20500;-81
2022/03/29 05:51:46;;;;;;;27.13;3.80;;;1.50;79.50;;;;;;4183268;28;20032;-81
2022/03/29 05:53:47;;;;;;;24.75;2.67;;;1.50;79.60;;;;;;4177769;28;20507;-81
2022/03/29 05:55:48;;;;;;;24.50;3.28;;;1.60;79.80;;;;;;4182755;28;20091;-80
2022/03/29 05:57:49;;;;;;;25.15;3.33;;;1.60;79.90;;;;;;4163601;28;20029;-82
2022/03/29 05:59:50;;;;;;;26.67;2.90;;;1.60;80.80;;;;;;4181182;28;20060;-81
2022/03/29 06:01:51;;;;;;;38.10;3.10;;;1.60;80.30;;;;;;4139316;28;20093;-81
2022/03/29 06:03:52;;;;;;;28.85;3.35;;;1.70;80.40;;;;;;4172307;28;20041;-81
2022/03/29 06:05:53;;;;;;;26.40;2.75;;;1.70;80.60;;;;;;4161317;28;20065;-81
2022/03/29 06:07:53;;;;;;;25.38;3.38;;;1.70;80.80;;;;;;4175965;28;20021;-81
2022/03/29 06:09:54;;;;;;;30.08;3.25;;;1.80;81.00;;;;;;4150226;28;20124;-82
2022/03/29 06:11:55;;;;;;;35.13;3.33;;;1.90;81.00;;;;;;4179992;28;20043;-82
2022/03/29 06:13:56;;;;;;;34.15;3.80;;;1.90;81.60;;;;;;4170953;28;20333;-81
2022/03/29 06:15:56;;;;;;;29.83;3.17;;;2.00;80.90;;;;;;4146677;28;20034;-81
2022/03/29 06:17:57;;;;;;;20.95;3.72;;;2.00;80.90;;;;;;4179758;28;20055;-81
2022/03/29 06:19:57;;;;;;;32.58;3.30;;;2.10;80.80;;;;;;4146337;28;20082;-81
2022/03/29 06:21:58;;;;;;;25.27;3.65;;;2.10;80.40;;;;;;4190586;28;20087;-82
2022/03/29 06:23:58;;;;;;;22.95;3.00;;;2.20;80.80;;;;;;4183459;28;20484;-82
2022/03/29 06:25:59;;;;;;;26.27;2.95;;;2.20;79.70;;;;;;4175837;28;21939;-82
2022/03/29 06:28:00;;;;;;;22.67;3.75;;;2.20;79.50;;;;;;4184809;28;20082;-82
2022/03/29 06:30:03;;;;;;;28.35;2.92;;;2.30;79.30;;;;;;4176037;28;20035;-81
2022/03/29 06:32:05;;;;;;;31.50;3.92;;;2.30;79.10;;;;;;4180502;28;20029;-81
2022/03/29 06:34:05;;;;;;;27.13;3.22;;;2.40;79.10;;;;;;4180420;28;20025;-81
2022/03/29 06:36:06;;;;;;;36.78;3.92;;;2.40;78.80;;;;;;4163884;28;20131;-81
2022/03/29 06:38:07;;;;;;;26.55;3.20;;;2.50;79.40;;;;;;4172038;28;21073;-80
2022/03/29 06:40:09;;;;;;;25.98;2.40;;;2.60;78.50;;;;;;4165891;28;20053;-81
2022/03/29 06:42:10;;;;;;;24.73;2.92;;;2.60;78.30;;;;;;4184114;28;20516;-82
2022/03/29 06:44:10;;;;;;;33.80;3.60;;;2.70;78.40;;;;;;4147297;28;20018;-81
2022/03/29 06:46:11;;;;;;;24.15;3.22;;;2.80;78.20;;;;;;4176725;28;20117;-81
2022/03/29 06:48:12;;;;;;;44.30;3.33;;;2.80;78.20;;;;;;4177603;28;20104;-81
2022/03/29 06:50:13;;;;;;;21.92;3.25;;;2.90;77.70;;;;;;4159663;28;20040;-81
2022/03/29 06:52:13;;;;;;;43.72;3.38;;;3.00;77.80;;;;;;4157697;28;20057;-81
2022/03/29 06:54:14;;;;;;;34.67;3.08;;;3.10;77.50;;;;;;4171233;28;20068;-81
2022/03/29 06:56:16;;;;;;;19.60;2.70;;;3.10;77.10;;;;;;4164896;28;20072;-81
2022/03/29 06:58:18;;;;;;;26.42;3.50;;;3.20;76.80;;;;;;4149222;28;20034;-82
2022/03/29 07:00:20;;;;;;;25.67;3.20;;;3.30;76.40;;;;;;4183364;28;20025;-81
2022/03/29 07:02:21;;;;;;;27.25;3.45;;;3.40;75.80;;;;;;4174569;28;20022;-81
2022/03/29 07:04:21;;;;;;;27.67;3.00;;;3.40;74.90;;;;;;4150457;28;20048;-81
2022/03/29 07:06:22;;;;;;;28.83;4.07;;;3.50;74.90;;;;;;4155776;28;20536;-81
2022/03/29 07:08:23;;;;;;;31.33;3.20;;;3.60;74.00;;;;;;4171727;28;20137;-81
2022/03/29 07:12:50;;;;;;;17.48;2.65;;;3.60;73.00;;;;;;4182067;28;20041;-81
2022/03/29 07:14:51;;;;;;;26.20;3.63;;;3.70;72.80;;;;;;4152492;28;20036;-82
2022/03/29 07:16:51;;;;;;;20.67;2.58;;;3.80;73.10;;;;;;4165305;28;20424;-81
2022/03/29 07:18:54;;;;;;;25.08;3.60;;;3.90;73.30;;;;;;4148515;28;20026;-82
2022/03/29 07:20:54;;;;;;;25.33;2.83;;;3.90;72.80;;;;;;4185243;28;20052;-82
2022/03/29 07:22:56;;;;;;;22.95;3.10;;;4.00;72.80;;;;;;4178931;28;20030;-81
2022/03/29 07:24:57;;;;;;;33.30;3.60;;;4.10;72.40;;;;;;4126365;28;20026;-82
2022/03/29 07:26:58;;;;;;;22.55;3.20;;;4.10;72.10;;;;;;4177074;28;20114;-82
2022/03/29 07:28:58;;;;;;;19.65;3.45;;;4.20;71.90;;;;;;4168008;28;20044;-82
2022/03/29 07:30:59;;;;;;;24.55;3.47;;;4.30;70.90;;;;;;4184552;28;20022;-83
2022/03/29 07:33:00;;;;;;;31.52;3.75;;;4.30;70.30;;;;;;4182009;28;20048;-82
2022/03/29 07:35:00;;;;;;;17.13;3.10;;;4.30;69.90;;;;;;4169153;28;20440;-82
2022/03/29 07:37:02;;;;;;;30.10;3.40;;;4.40;70.10;;;;;;4183917;28;20037;-82
2022/03/29 07:39:03;;;;;;;26.70;3.05;;;4.50;70.50;;;;;;4170720;28;20105;-82
2022/03/29 07:41:04;;;;;;;23.10;3.10;;;4.60;70.20;;;;;;4166391;28;20076;-82
2022/03/29 07:43:05;;;;;;;17.10;2.65;;;4.60;68.90;;;;;;4150737;28;20030;-82
2022/03/29 07:45:06;;;;;;;18.77;2.75;;;4.70;68.70;;;;;;4173085;28;20029;-82
2022/03/29 07:47:07;;;;;;;21.60;3.30;;;4.70;68.70;;;;;;4158085;28;20085;-82
2022/03/29 07:49:08;;;;;;;28.48;3.17;;;4.80;68.90;;;;;;4184960;28;20772;-82
2022/03/29 07:51:11;;;;;;;20.20;2.50;;;4.90;67.80;;;;;;4179270;28;20029;-81
2022/03/29 07:53:11;;;;;;;27.48;2.80;;;4.90;67.10;;;;;;4158604;28;20034;-82
2022/03/29 07:55:12;;;;;;;28.23;3.08;;;5.00;66.40;;;;;;4141608;28;20038;-82
2022/03/29 07:57:13;;;;;;;18.90;2.47;;;5.10;66.10;;;;;;4141223;28;20033;-82
2022/03/29 07:59:13;;;;;;;27.27;3.63;;;5.10;65.80;;;;;;4176644;28;20034;-82
2022/03/29 08:01:14;;;;;;;24.65;2.90;;;5.20;64.50;;;;;;4165867;28;20030;-82
2022/03/29 08:03:19;;;;;;;25.70;2.88;;;5.20;64.10;;;;;;4167034;28;20021;-82
2022/03/29 08:05:20;;;;;;;25.80;3.15;;;5.20;64.20;;;;;;4175900;28;20028;-82
2022/03/29 08:07:21;;;;;;;17.00;3.35;;;5.20;63.20;;;;;;4150789;28;20028;-82
2022/03/29 08:09:22;;;;;;;26.13;2.88;;;5.20;62.40;;;;;;4186242;28;20044;-82
2022/03/29 08:11:22;;;;;;;19.27;2.53;;;5.20;63.30;;;;;;4180811;28;20029;-82
2022/03/29 08:13:24;;;;;;;20.65;2.78;;;5.20;63.70;;;;;;4151321;28;20034;-81
2022/03/29 08:15:25;;;;;;;22.17;2.85;;;5.20;63.40;;;;;;4161315;28;20034;-81
2022/03/29 08:17:26;;;;;;;30.08;3.28;;;5.20;63.50;;;;;;4166126;28;20029;-82
2022/03/29 08:19:27;;;;;;;23.88;3.45;;;5.20;63.20;;;;;;4168699;28;20480;-80
2022/03/29 08:23:46;;;;;;;18.23;2.47;;;5.30;63.00;;;;;;4175682;28;20033;-81
2022/03/29 08:25:47;;;;;;;20.60;2.78;;;5.30;62.90;;;;;;4164429;28;20468;-82
2022/03/29 08:27:48;;;;;;;25.45;3.80;;;5.30;62.10;;;;;;4174416;28;20449;-81
2022/03/29 08:29:49;;;;;;;23.40;2.80;;;5.30;61.70;;;;;;4174631;28;20037;-81
2022/03/29 08:31:49;;;;;;;30.70;3.20;;;5.40;60.90;;;;;;4157690;28;20064;-85
2022/03/29 08:33:50;;;;;;;16.23;2.85;;;5.30;60.30;;;;;;4181666;28;20021;-82
2022/03/29 08:35:50;;;;;;;33.15;3.22;;;5.30;60.10;;;;;;4180259;28;20025;-80
2022/03/29 08:37:51;;;;;;;20.17;2.58;;;5.30;60.50;;;;;;4159202;28;20037;-81
2022/03/29 08:39:52;;;;;;;21.60;3.35;;;5.40;60.80;;;;;;4174628;28;20543;-84
2022/03/29 08:42:02;;;;;;;12.95;2.40;;;5.40;60.90;;;;;;4144332;28;20100;-81
2022/03/29 08:44:03;;;;;;;23.42;3.42;;;5.40;59.70;;;;;;4163902;28;20025;-83
2022/03/29 08:46:04;;;;;;;24.65;3.30;;;5.40;59.40;;;;;;4181352;28;20028;-81
2022/03/29 08:48:04;;;;;;;21.85;2.63;;;5.50;59.80;;;;;;4179577;28;20589;-81
2022/03/29 08:50:06;;;;;;;24.80;2.80;;;5.50;60.40;;;;;;4178324;28;20037;-81
2022/03/29 08:52:06;;;;;;;26.25;3.60;;;5.60;60.00;;;;;;4184484;28;20021;-81
2022/03/29 08:54:07;;;;;;;20.80;2.50;;;5.60;59.20;;;;;;4168799;28;20029;-81
2022/03/29 08:56:08;;;;;;;23.85;3.40;;;5.60;59.50;;;;;;4182485;28;20056;-82
2022/03/29 08:58:08;;;;;;;19.23;2.63;;;5.70;58.90;;;;;;4181001;28;20029;-80
2022/03/29 09:00:09;;;;;;;14.80;3.13;;;5.70;58.40;;;;;;4167757;28;20060;-83
2022/03/29 09:02:11;;;;;;;17.80;2.40;;;5.70;57.20;;;;;;4180238;28;20036;-81
2022/03/29 09:04:16;;;;;;;25.83;3.13;;;5.70;57.00;;;;;;4126031;28;20050;-80
2022/03/29 09:06:16;;;;;;;20.35;2.63;;;5.80;57.60;;;;;;4175239;28;20112;-81
2022/03/29 09:08:17;;;;;;;22.55;2.55;;;5.90;58.00;;;;;;4177174;28;20033;-81
2022/03/29 09:10:19;;;;;;;18.55;2.90;;;5.90;56.90;;;;;;4174346;28;20040;-82
2022/03/29 09:12:20;;;;;;;24.70;2.78;;;6.00;57.20;;;;;;4155785;28;20589;-81
2022/03/29 09:14:24;;;;;;;18.70;3.60;;;6.10;56.90;;;;;;4164501;28;20034;-81
2022/03/29 09:16:33;;;;;;;12.77;2.63;;;6.20;56.20;;;;;;4181924;28;20721;-81
2022/03/29 09:18:34;;;;;;;20.92;2.13;;;6.20;56.40;;;;;;4175688;28;20045;-81
2022/03/29 09:20:35;;;;;;;14.45;2.40;;;6.30;56.50;;;;;;4177167;28;20033;-81
2022/03/29 09:22:50;;;;;;;13.95;2.05;;;6.50;56.80;;;;;;4161008;28;20038;-82
2022/03/29 09:24:55;;;;;;;13.70;2.15;;;6.50;56.70;;;;;;4181246;28;20031;-82
2022/03/29 09:26:55;;;;;;;16.25;2.70;;;6.60;54.90;;;;;;4179915;28;20036;-81
2022/03/29 09:28:56;;;;;;;19.13;2.47;;;6.70;54.50;;;;;;4160451;28;20025;-81
2022/03/29 09:30:57;;;;;;;19.27;2.53;;;6.70;53.50;;;;;;4159266;28;20076;-80
2022/03/29 09:33:02;;;;;;;25.65;3.97;;;6.80;53.60;;;;;;4177756;28;20541;-81
2022/03/29 09:35:08;;;;;;;15.63;2.33;;;6.80;52.40;;;;;;4162077;28;20097;-81
2022/03/29 09:37:09;;;;;;;17.85;2.50;;;6.90;53.90;;;;;;4149106;28;20030;-81
2022/03/29 09:39:28;;;;;;;17.20;2.38;;;6.90;54.70;;;;;;4154535;28;20082;-81
2022/03/29 09:41:30;;;;;;;17.13;2.40;;;7.00;52.80;;;;;;4172619;28;20105;-81
2022/03/29 09:43:31;;;;;;;14.05;1.60;;;7.10;50.50;;;;;;4181958;28;20036;-81
2022/03/29 09:46:01;;;;;;;13.23;1.58;;;7.00;50.00;;;;;;4148364;28;20432;-82
2022/03/29 09:48:20;;;;;;;13.35;2.17;;;7.10;51.20;;;;;;4114082;28;20589;-82
2022/03/29 09:50:21;;;;;;;11.30;2.15;;;7.10;51.60;;;;;;4122255;28;20549;-82
2022/03/29 09:52:23;;;;;;;14.48;2.05;;;7.10;52.20;;;;;;4129266;28;20078;-82
2022/03/29 09:54:24;;;;;;;15.25;2.35;;;7.10;52.40;;;;;;4122886;28;20048;-82
2022/03/29 09:56:29;;;;;;;14.75;2.03;;;7.10;52.60;;;;;;4138472;28;20068;-83
2022/03/29 09:58:30;;;;;;;11.57;2.70;;;7.20;51.90;;;;;;4122949;28;20042;-81
2022/03/29 10:00:32;;;;;;;15.38;2.03;;;7.20;50.20;;;;;;4120286;28;20022;-80
2022/03/29 10:02:36;;;;;;;15.15;2.38;;;7.20;51.00;;;;;;4138893;28;20029;-81
2022/03/29 10:04:37;;;;;;;13.68;2.45;;;7.20;50.80;;;;;;4117407;28;20050;-81
2022/03/29 10:06:38;;;;;;;13.88;2.28;;;7.20;51.50;;;;;;4117949;28;20035;-80
2022/03/29 10:10:58;;;;;;;16.30;3.15;;;7.20;50.50;;;;;;4123329;28;20043;-82
2022/03/29 10:12:58;;;;;;;11.82;1.88;;;7.30;50.60;;;;;;4111551;28;20045;-81
2022/03/29 10:14:59;;;;;;;14.13;2.38;;;7.30;51.40;;;;;;4128558;28;20050;-82
2022/03/29 10:16:59;;;;;;;25.98;2.78;;;7.40;51.60;;;;;;4117000;28;20053;-80
2022/03/29 10:19:00;;;;;;;8.57;1.35;;;7.50;50.40;;;;;;4123579;28;20081;-82
2022/03/29 10:21:02;;;;;;;13.73;1.60;;;7.50;48.80;;;;;;4127939;28;20060;-82
2022/03/29 10:23:02;;;;;;;11.20;1.95;;;7.60;48.80;;;;;;4112938;28;20311;-83
2022/03/29 10:25:04;;;;;;;19.20;2.90;;;7.60;49.90;;;;;;4139667;28;20048;-83
2022/03/29 10:27:04;;;;;;;13.25;1.40;;;7.70;49.20;;;;;;4151724;28;20135;-83
2022/03/29 10:29:08;;;;;;;13.90;2.60;;;7.80;48.70;;;;;;4161244;28;20088;-82
2022/03/29 10:31:47;;;;;;;15.63;2.40;;;7.90;48.20;;;;;;4180295;28;20032;-82
2022/03/29 10:33:48;;;;;;;17.45;2.90;;;7.90;47.60;;;;;;4165518;28;20087;-82
2022/03/29 10:37:27;;;;;;;13.23;1.70;;;8.00;46.60;;;;;;4218956;27;20379;-84
2022/03/29 10:40:07;;;;;;;16.50;1.55;;;8.00;46.10;;;;;;4185446;28;20072;-84
2022/03/29 10:42:42;;;;;;;9.98;1.65;;;7.90;45.00;;;;;;4167957;28;21616;-83
2022/03/29 10:45:00;;;;;;;20.88;2.08;;;8.00;44.40;;;;;;4171071;28;20022;-83
2022/03/29 10:47:03;;;;;;;15.63;1.73;;;8.10;45.50;;;;;;4185230;28;20055;-84